createdAt,value
2023-04-05T00:03:43.870Z,6.97
2023-04-05T00:08:49.951Z,8.27
2023-04-05T00:13:52.224Z,7.43
2023-04-05T00:18:52.918Z,7.03
2023-04-05T00:23:57.178Z,8.40
2023-04-05T00:28:59.142Z,10.10
2023-04-05T00:33:59.827Z,6.32
2023-04-05T00:39:00.501Z,10.20
2023-04-05T00:44:03.873Z,7.15
2023-04-05T00:49:05.936Z,8.00
2023-04-05T00:54:07.258Z,9.60
2023-04-05T00:59:09.504Z,8.82
2023-04-05T01:04:14.052Z,6.07
2023-04-05T01:09:23.269Z,9.20
2023-04-05T01:14:25.445Z,10.77
2023-04-05T01:19:29.249Z,7.03
2023-04-05T01:24:46.889Z,5.35
2023-04-05T01:30:04.701Z,8.05
2023-04-05T01:35:14.357Z,4.70
2023-04-05T01:40:15.142Z,15.40
2023-04-05T01:45:17.136Z,5.93
2023-04-05T01:50:17.988Z,8.00
2023-04-05T01:55:18.782Z,6.75
2023-04-05T02:00:21.004Z,5.22
2023-04-05T02:05:21.731Z,8.00
2023-04-05T02:10:23.875Z,8.80
2023-04-05T02:15:26.018Z,7.80
2023-04-05T02:20:26.806Z,10.23
2023-04-05T02:25:28.191Z,6.43
2023-04-05T02:30:30.302Z,6.85
2023-04-05T02:35:30.999Z,4.85
2023-04-05T02:40:31.741Z,9.10
2023-04-05T02:45:34.437Z,8.68
2023-04-05T02:50:35.112Z,7.13
2023-04-05T02:55:35.798Z,7.55
2023-04-05T03:00:38.386Z,7.43
2023-04-05T03:05:39.862Z,13.13
2023-04-05T03:10:45.026Z,7.63
2023-04-05T03:15:54.766Z,8.27
2023-04-05T03:20:57.764Z,6.38
2023-04-05T03:26:00.105Z,6.47
2023-04-05T03:31:05.317Z,5.28
2023-04-05T03:36:07.138Z,6.70
2023-04-05T03:41:11.287Z,8.10
2023-04-05T03:46:13.335Z,5.63
2023-04-05T03:51:14.077Z,9.60
2023-04-05T03:56:15.185Z,8.30
2023-04-05T04:01:22.108Z,8.95
2023-04-05T04:06:23.008Z,6.72
2023-04-05T04:11:23.859Z,6.63
2023-04-05T04:16:28.226Z,12.40
2023-04-05T04:21:39.989Z,7.60
2023-04-05T04:26:46.844Z,7.82
2023-04-05T04:32:07.849Z,9.52
2023-04-05T04:37:30.193Z,9.85
2023-04-05T04:42:58.722Z,7.72
2023-04-05T04:48:14.084Z,7.93
2023-04-05T04:53:30.321Z,8.25
2023-04-05T04:58:31.126Z,9.45
2023-04-05T05:03:42.166Z,8.50
2023-04-05T05:08:42.847Z,7.00
2023-04-05T05:13:43.529Z,9.43
2023-04-05T05:18:52.763Z,7.95
2023-04-05T05:23:55.310Z,8.65
2023-04-05T05:28:56.516Z,8.30
2023-04-05T05:34:03.514Z,9.23
2023-04-05T05:39:05.903Z,9.50
2023-04-05T05:44:07.418Z,8.73
2023-04-05T05:49:09.413Z,12.30
2023-04-05T05:54:10.062Z,13.32
2023-04-05T05:59:12.093Z,14.65
2023-04-05T06:04:14.718Z,11.63
2023-04-05T06:09:16.225Z,12.35
2023-04-05T06:14:17.104Z,16.13
2023-04-05T06:19:19.211Z,7.78
2023-04-05T06:24:19.916Z,11.05
2023-04-05T06:29:20.647Z,16.52
2023-04-05T06:34:23.043Z,11.30
2023-04-05T06:39:23.771Z,13.77
2023-04-05T06:44:24.639Z,14.23
2023-04-05T06:49:26.658Z,11.70
2023-04-05T06:54:27.349Z,12.43
2023-04-05T06:59:29.474Z,10.45
2023-04-05T07:04:37.213Z,9.70
2023-04-05T07:09:39.610Z,10.35
2023-04-05T07:14:40.649Z,10.90
2023-04-05T07:19:45.212Z,10.88
2023-04-05T07:24:47.057Z,12.05
2023-04-05T07:29:48.398Z,14.70
2023-04-05T07:34:50.471Z,7.00
2023-04-05T07:39:51.282Z,9.98
2023-04-05T07:44:52.043Z,7.75
2023-04-05T07:49:54.075Z,9.75
2023-04-05T07:54:54.981Z,10.38
2023-04-05T07:59:56.635Z,6.05
2023-04-05T08:04:58.663Z,8.98
2023-04-05T08:10:00.318Z,8.48
2023-04-05T08:15:01.106Z,5.18
2023-04-05T08:20:04.044Z,9.50
2023-04-05T08:25:05.556Z,9.18
2023-04-05T08:30:07.866Z,10.05
2023-04-05T08:35:10.489Z,8.50
2023-04-05T08:40:12.666Z,8.15
2023-04-05T08:45:16.456Z,9.73
2023-04-05T08:50:18.649Z,6.78
2023-04-05T08:55:19.546Z,7.57
2023-04-05T09:00:21.207Z,5.45
2023-04-05T09:05:24.967Z,7.97
2023-04-05T09:10:28.094Z,6.63
2023-04-05T09:15:29.336Z,4.90
2023-04-05T09:20:31.578Z,9.35
2023-04-05T09:25:38.637Z,6.43
2023-04-05T09:30:39.726Z,9.03
2023-04-05T09:35:43.437Z,5.10
2023-04-05T09:40:45.961Z,5.22
2023-04-05T09:45:50.895Z,7.38
2023-04-05T09:51:12.741Z,8.18
2023-04-05T09:56:14.889Z,5.78
2023-04-05T10:01:17.229Z,5.85
2023-04-05T10:06:19.798Z,7.20
2023-04-05T10:11:21.556Z,6.15
2023-04-05T10:16:24.698Z,4.15
2023-04-05T10:21:31.075Z,9.30
2023-04-05T10:26:44.288Z,4.45
2023-04-05T10:31:52.305Z,4.82
2023-04-05T10:36:59.435Z,7.28
2023-04-05T10:42:03.470Z,3.92
2023-04-05T10:47:06.106Z,4.60
2023-04-05T10:52:08.274Z,5.32
2023-04-05T10:57:10.994Z,7.00
2023-04-05T11:02:12.548Z,8.68
2023-04-05T11:07:16.260Z,5.22
2023-04-05T11:12:17.029Z,6.13
2023-04-05T11:17:29.121Z,4.45
2023-04-05T11:22:31.958Z,5.82
2023-04-05T11:27:34.115Z,3.38
2023-04-05T11:32:46.778Z,7.20
2023-04-05T11:38:09.412Z,9.48
2023-04-05T11:43:12.523Z,8.10
2023-04-05T11:48:15.442Z,6.40
2023-04-05T11:53:18.432Z,6.28
2023-04-05T11:58:21.449Z,4.07
2023-04-05T12:03:32.540Z,7.43
2023-04-05T12:08:43.419Z,5.47
2023-04-05T12:13:46.492Z,6.85
2023-04-05T12:18:55.631Z,9.50
2023-04-05T12:23:58.005Z,4.95
2023-04-05T12:29:01.679Z,5.80
2023-04-05T12:34:02.479Z,4.70
2023-04-05T12:39:09.158Z,4.88
2023-04-05T12:44:13.319Z,5.45
2023-04-05T12:49:17.353Z,4.78
2023-04-05T12:54:24.165Z,3.78
2023-04-05T12:59:25.489Z,5.35
2023-04-05T13:04:27.274Z,3.60
2023-04-05T13:09:29.328Z,5.38
2023-04-05T13:14:30.029Z,3.55
2023-04-05T13:19:30.931Z,9.02
2023-04-05T13:24:32.977Z,5.53
2023-04-05T13:29:33.662Z,6.13
2023-04-05T13:34:34.315Z,3.35
2023-04-05T13:39:36.304Z,4.35
2023-04-05T13:44:38.128Z,5.28
2023-04-05T13:49:38.775Z,4.70
2023-04-05T13:54:40.766Z,5.00
2023-04-05T13:59:41.660Z,3.53
2023-04-05T14:04:43.101Z,5.68
2023-04-05T14:09:45.498Z,9.77
2023-04-05T14:14:46.410Z,4.53
2023-04-05T14:19:48.201Z,4.95
2023-04-05T14:24:50.203Z,4.63
2023-04-05T14:29:52.516Z,3.80
2023-04-05T14:34:53.376Z,3.75
2023-04-05T14:39:55.445Z,3.35
2023-04-05T14:44:56.111Z,4.30
2023-04-05T14:49:56.748Z,6.15
2023-04-05T14:54:58.770Z,5.25
2023-04-05T14:59:59.560Z,3.45
2023-04-05T15:05:01.169Z,2.88
2023-04-05T15:10:03.293Z,3.75
2023-04-05T15:15:04.133Z,5.30
2023-04-05T15:20:05.555Z,3.83
2023-04-05T15:25:08.849Z,7.00
2023-04-05T15:30:10.863Z,6.15
2023-04-05T15:35:11.520Z,4.32
2023-04-05T15:40:13.715Z,7.68
2023-04-05T15:45:14.430Z,5.35
2023-04-05T15:50:15.410Z,4.15
2023-04-05T15:55:17.608Z,5.53
2023-04-05T16:00:18.845Z,2.88
2023-04-05T16:05:19.603Z,4.35
2023-04-05T16:10:25.963Z,4.38
2023-04-05T16:15:28.279Z,3.83
2023-04-05T16:20:29.045Z,4.75
2023-04-05T16:25:31.211Z,3.72
2023-04-05T16:30:32.061Z,3.17
2023-04-05T16:35:32.824Z,4.07
2023-04-05T16:40:34.891Z,2.83
2023-04-05T16:58:26.337Z,4.57
2023-04-05T17:03:27.825Z,4.05
2023-04-05T17:08:28.589Z,7.15
2023-04-05T17:13:30.862Z,4.60
2023-04-05T17:18:31.450Z,4.60
2023-04-05T17:23:32.049Z,3.90
2023-04-05T17:28:34.711Z,4.35
2023-04-05T17:33:35.475Z,3.42
2023-04-05T17:38:36.125Z,6.20
2023-04-05T17:43:38.109Z,4.32
2023-04-05T17:48:38.773Z,6.47
2023-04-05T17:53:39.376Z,3.97
2023-04-05T17:58:41.668Z,6.10
2023-04-05T18:04:06.960Z,5.25
2023-04-05T18:09:09.944Z,7.07
2023-04-05T18:14:12.069Z,4.90
2023-04-05T18:19:12.793Z,6.10
2023-04-05T18:24:14.578Z,3.03
2023-04-05T18:29:16.688Z,5.55
2023-04-05T18:34:17.409Z,3.42
2023-04-05T18:39:19.943Z,5.05
2023-04-05T18:44:22.021Z,4.80
2023-04-05T18:49:22.630Z,5.57
2023-04-05T18:54:23.336Z,5.97
2023-04-05T18:59:25.496Z,7.07
2023-04-05T19:04:26.184Z,8.30
2023-04-05T19:09:28.120Z,8.05
2023-04-05T19:14:30.128Z,9.32
2023-04-05T19:19:30.978Z,6.50
2023-04-05T19:24:32.926Z,8.10
2023-04-05T19:29:35.623Z,9.15
2023-04-05T19:34:38.603Z,11.85
2023-04-05T19:39:39.319Z,10.40
2023-04-05T19:44:50.956Z,7.15
2023-04-05T19:49:53.702Z,6.30
2023-04-05T19:54:54.297Z,7.60
2023-04-05T19:59:56.438Z,11.07
2023-04-05T20:04:57.084Z,10.25
2023-04-05T20:09:58.252Z,11.15
2023-04-05T20:15:00.247Z,7.90
2023-04-05T20:20:01.477Z,10.10
2023-04-05T20:25:08.841Z,10.88
2023-04-05T20:30:12.602Z,10.48
2023-04-05T20:35:32.220Z,9.48
2023-04-05T20:40:32.824Z,5.55
2023-04-05T20:45:35.786Z,9.40
2023-04-05T20:50:36.409Z,13.00
2023-04-05T20:55:36.979Z,11.32
2023-04-05T21:00:41.360Z,10.65
2023-04-05T21:05:42.001Z,10.77
2023-04-05T21:10:42.787Z,12.43
2023-04-05T21:15:44.769Z,11.90
2023-04-05T21:20:50.458Z,12.45
2023-04-05T21:25:52.354Z,13.40
2023-04-05T21:30:54.653Z,14.02
2023-04-05T21:35:55.432Z,9.93
2023-04-05T21:40:56.328Z,11.30
2023-04-05T21:45:58.260Z,14.45
2023-04-05T21:50:58.828Z,9.63
2023-04-05T21:55:59.403Z,8.35
2023-04-05T22:01:01.486Z,11.60
2023-04-05T22:06:02.600Z,10.48
2023-04-05T22:11:03.295Z,16.63
2023-04-05T22:16:05.333Z,10.43
2023-04-05T22:21:06.798Z,10.23
2023-04-05T22:26:07.482Z,11.25
2023-04-05T22:31:10.615Z,11.60
2023-04-05T22:36:11.334Z,10.77
2023-04-05T22:41:12.114Z,14.50
2023-04-05T22:46:14.038Z,11.05
2023-04-05T22:51:14.659Z,11.85
2023-04-05T22:56:15.464Z,14.65
2023-04-05T23:01:17.829Z,16.48
2023-04-05T23:06:18.503Z,12.55
2023-04-05T23:11:19.125Z,9.65
2023-04-05T23:16:21.133Z,8.60
2023-04-05T23:21:21.754Z,8.68
2023-04-05T23:26:22.347Z,8.52
2023-04-05T23:31:24.243Z,12.25
2023-04-05T23:36:24.838Z,12.80
2023-04-05T23:41:25.774Z,11.20
2023-04-05T23:46:27.720Z,14.68
2023-04-05T23:51:28.451Z,13.30
2023-04-05T23:56:29.027Z,13.45
